createdAt,value
2023-01-15T00:01:31.194Z,8.80
2023-01-15T00:03:59.604Z,8.80
2023-01-15T00:06:28.060Z,8.80
2023-01-15T00:08:54.796Z,8.70
2023-01-15T00:11:21.754Z,8.70
2023-01-15T00:13:49.240Z,8.70
2023-01-15T00:16:21.818Z,8.70
2023-01-15T00:18:56.840Z,8.70
2023-01-15T00:21:24.792Z,8.60
2023-01-15T00:24:10.062Z,8.70
2023-01-15T00:26:56.058Z,8.60
2023-01-15T00:29:23.415Z,8.70
2023-01-15T00:31:59.480Z,8.70
2023-01-15T00:34:27.121Z,8.70
2023-01-15T00:36:54.022Z,8.70
2023-01-15T00:39:21.072Z,8.70
2023-01-15T00:41:48.192Z,8.70
2023-01-15T00:44:15.300Z,8.70
2023-01-15T00:46:42.453Z,8.70
2023-01-15T00:49:10.197Z,8.70
2023-01-15T00:51:37.032Z,8.70
2023-01-15T00:54:04.325Z,8.70
2023-01-15T00:56:31.546Z,8.70
2023-01-15T00:59:00.937Z,8.80
2023-01-15T01:01:27.777Z,8.80
2023-01-15T01:03:54.548Z,8.70
2023-01-15T01:06:21.576Z,8.80
2023-01-15T01:08:48.665Z,8.80
2023-01-15T01:11:19.369Z,8.80
2023-01-15T01:13:47.329Z,8.80
2023-01-15T01:16:28.021Z,8.80
2023-01-15T01:18:55.088Z,8.70
2023-01-15T01:21:22.268Z,8.70
2023-01-15T01:23:49.165Z,8.70
2023-01-15T01:26:16.293Z,8.70
2023-01-15T01:28:42.940Z,8.60
2023-01-15T01:31:10.205Z,8.60
2023-01-15T01:33:37.007Z,8.50
2023-01-15T01:36:04.229Z,8.50
2023-01-15T01:38:30.966Z,8.50
2023-01-15T01:40:57.699Z,8.40
2023-01-15T01:43:27.183Z,8.40
2023-01-15T01:45:54.561Z,8.30
2023-01-15T01:48:33.610Z,8.30
2023-01-15T01:51:02.701Z,8.20
2023-01-15T01:53:32.100Z,8.20
2023-01-15T01:56:00.586Z,8.10
2023-01-15T01:58:32.659Z,7.90
2023-01-15T02:01:01.048Z,7.80
2023-01-15T02:03:32.722Z,7.70
2023-01-15T02:06:02.955Z,7.50
2023-01-15T02:08:32.339Z,7.40
2023-01-15T02:10:59.085Z,7.30
2023-01-15T02:13:34.567Z,7.20
2023-01-15T02:16:08.518Z,7.10
2023-01-15T02:18:48.537Z,7.10
2023-01-15T02:21:29.117Z,7.00
2023-01-15T02:24:03.234Z,6.90
2023-01-15T02:26:35.948Z,6.90
2023-01-15T02:29:04.856Z,6.90
2023-01-15T02:31:36.354Z,6.80
2023-01-15T02:34:10.275Z,6.80
2023-01-15T02:36:41.935Z,6.80
2023-01-15T02:39:11.187Z,6.80
2023-01-15T02:41:43.226Z,6.70
2023-01-15T02:44:12.585Z,6.70
2023-01-15T02:46:41.173Z,6.70
2023-01-15T02:49:10.620Z,6.70
2023-01-15T02:51:44.400Z,6.70
2023-01-15T02:54:15.579Z,6.60
2023-01-15T02:56:45.495Z,6.50
2023-01-15T02:59:20.354Z,6.50
2023-01-15T03:02:10.943Z,6.40
2023-01-15T03:04:43.750Z,6.30
2023-01-15T03:07:18.881Z,6.30
2023-01-15T03:09:47.052Z,6.20
2023-01-15T03:12:13.619Z,6.10
2023-01-15T03:14:49.292Z,6.00
2023-01-15T03:17:23.321Z,6.00
2023-01-15T03:20:16.087Z,5.80
2023-01-15T03:22:49.131Z,5.70
2023-01-15T03:25:20.770Z,5.60
2023-01-15T03:27:47.465Z,5.50
2023-01-15T03:30:18.483Z,5.40
2023-01-15T03:32:45.339Z,5.30
2023-01-15T03:35:45.818Z,5.30
2023-01-15T03:38:33.572Z,5.20
2023-01-15T03:41:19.242Z,5.20
2023-01-15T03:44:06.959Z,5.10
2023-01-15T03:46:56.362Z,5.10
2023-01-15T03:49:51.820Z,5.00
2023-01-15T03:52:55.457Z,5.10
2023-01-15T03:55:24.599Z,5.10
2023-01-15T03:57:51.203Z,5.00
2023-01-15T04:00:25.150Z,5.00
2023-01-15T04:02:55.221Z,5.00
2023-01-15T04:05:22.649Z,5.00
2023-01-15T04:07:51.219Z,5.00
2023-01-15T04:10:17.874Z,5.00
2023-01-15T04:12:44.582Z,5.00
2023-01-15T04:15:12.522Z,5.10
2023-01-15T04:17:39.269Z,5.10
2023-01-15T04:20:06.926Z,5.10
2023-01-15T04:22:33.664Z,5.10
2023-01-15T04:25:00.355Z,5.10
2023-01-15T04:27:27.300Z,5.10
2023-01-15T04:29:53.952Z,5.10
2023-01-15T04:32:20.940Z,5.10
2023-01-15T04:34:47.600Z,5.10
2023-01-15T04:37:15.743Z,5.10
2023-01-15T04:39:42.414Z,5.10
2023-01-15T04:42:32.300Z,5.20
2023-01-15T04:44:59.135Z,5.20
2023-01-15T04:47:25.836Z,5.20
2023-01-15T04:49:52.496Z,5.20
2023-01-15T04:52:19.443Z,5.20
2023-01-15T04:54:46.174Z,5.20
2023-01-15T04:57:12.795Z,5.20
2023-01-15T04:59:39.404Z,5.20
2023-01-15T05:02:06.919Z,5.20
2023-01-15T05:04:34.876Z,5.30
2023-01-15T05:07:03.127Z,5.20
2023-01-15T05:09:29.893Z,5.20
2023-01-15T05:11:56.776Z,5.30
2023-01-15T05:14:23.414Z,5.30
2023-01-15T05:16:50.090Z,5.30
2023-01-15T05:19:16.753Z,5.30
2023-01-15T05:21:44.289Z,5.20
2023-01-15T05:24:14.879Z,5.30
2023-01-15T05:26:41.978Z,5.30
2023-01-15T05:29:10.093Z,5.20
2023-01-15T05:31:36.812Z,5.20
2023-01-15T05:34:03.446Z,5.20
2023-01-15T05:36:32.379Z,5.10
2023-01-15T05:39:01.676Z,5.20
2023-01-15T05:41:48.616Z,5.10
2023-01-15T05:44:16.251Z,5.10
2023-01-15T05:46:44.750Z,5.10
2023-01-15T05:49:14.751Z,5.10
2023-01-15T05:51:41.997Z,5.10
2023-01-15T05:54:12.735Z,5.10
2023-01-15T05:56:39.810Z,5.00
2023-01-15T05:59:07.280Z,5.00
2023-01-15T06:01:34.451Z,5.00
2023-01-15T06:04:02.896Z,5.00
2023-01-15T06:06:30.171Z,5.00
2023-01-15T06:08:56.861Z,5.00
2023-01-15T06:11:23.853Z,5.00
2023-01-15T06:13:50.895Z,5.00
2023-01-15T06:16:18.798Z,4.90
2023-01-15T06:18:45.612Z,4.90
2023-01-15T06:21:13.587Z,4.90
2023-01-15T06:23:40.655Z,4.90
2023-01-15T06:26:10.933Z,4.80
2023-01-15T06:28:37.625Z,4.80
2023-01-15T06:31:06.751Z,4.80
2023-01-15T06:33:33.887Z,4.80
2023-01-15T06:36:06.193Z,4.80
2023-01-15T06:38:32.970Z,4.70
2023-01-15T06:41:04.020Z,4.80
2023-01-15T06:43:49.155Z,4.80
2023-01-15T06:46:35.783Z,4.70
2023-01-15T06:49:02.522Z,4.70
2023-01-15T06:51:31.184Z,4.70
2023-01-15T06:53:58.030Z,4.70
2023-01-15T06:56:24.718Z,4.70
2023-01-15T06:58:51.380Z,4.70
2023-01-15T07:01:18.056Z,4.70
2023-01-15T07:03:44.893Z,4.70
2023-01-15T07:06:13.489Z,4.70
2023-01-15T07:08:40.224Z,4.70
2023-01-15T07:11:09.652Z,4.70
2023-01-15T07:13:36.993Z,4.70
2023-01-15T07:16:04.566Z,4.60
2023-01-15T07:18:32.918Z,4.60
2023-01-15T07:21:00.111Z,4.60
2023-01-15T07:23:28.225Z,4.60
2023-01-15T07:25:55.528Z,4.60
2023-01-15T07:28:24.324Z,4.60
2023-01-15T07:30:51.018Z,4.60
2023-01-15T07:33:17.711Z,4.60
2023-01-15T07:35:44.353Z,4.50
2023-01-15T07:38:11.061Z,4.60
2023-01-15T07:40:38.833Z,4.60
2023-01-15T07:43:24.129Z,4.60
2023-01-15T07:46:09.527Z,4.60
2023-01-15T07:48:54.686Z,4.60
2023-01-15T07:51:21.604Z,4.60
2023-01-15T07:53:49.135Z,4.60
2023-01-15T07:56:15.934Z,4.60
2023-01-15T07:58:44.548Z,4.60
2023-01-15T08:01:11.304Z,4.60
2023-01-15T08:03:38.366Z,4.60
2023-01-15T08:06:05.192Z,4.60
2023-01-15T08:08:31.799Z,4.60
2023-01-15T08:11:20.879Z,4.60
2023-01-15T08:14:06.241Z,4.60
2023-01-15T08:16:35.891Z,4.60
2023-01-15T08:19:03.215Z,4.60
2023-01-15T08:21:30.007Z,4.60
2023-01-15T08:23:56.835Z,4.60
2023-01-15T08:26:23.415Z,4.60
2023-01-15T08:28:50.069Z,4.60
2023-01-15T08:31:16.760Z,4.70
2023-01-15T08:33:43.365Z,4.60
2023-01-15T08:36:10.119Z,4.60
2023-01-15T08:38:36.971Z,4.60
2023-01-15T08:41:03.872Z,4.60
2023-01-15T08:43:33.172Z,4.60
2023-01-15T08:46:01.600Z,4.60
2023-01-15T08:48:30.157Z,4.60
2023-01-15T08:50:57.086Z,4.60
2023-01-15T08:53:24.412Z,4.60
2023-01-15T08:55:51.401Z,4.60
2023-01-15T08:58:18.291Z,4.60
2023-01-15T09:00:45.030Z,4.60
2023-01-15T09:03:11.741Z,4.60
2023-01-15T09:05:38.527Z,4.60
2023-01-15T09:08:06.681Z,4.70
2023-01-15T09:10:34.525Z,4.70
2023-01-15T09:13:04.664Z,4.60
2023-01-15T09:15:33.468Z,4.70
2023-01-15T09:18:00.548Z,4.70
2023-01-15T09:20:27.459Z,4.70
2023-01-15T09:22:54.102Z,4.60
2023-01-15T09:25:23.849Z,4.60
2023-01-15T09:27:50.960Z,4.70
2023-01-15T09:30:20.356Z,4.70
2023-01-15T09:32:48.008Z,4.70
2023-01-15T09:35:15.479Z,4.70
2023-01-15T09:37:42.199Z,4.70
2023-01-15T09:40:38.665Z,4.70
2023-01-15T09:43:23.441Z,4.80
2023-01-15T09:45:58.453Z,4.80
2023-01-15T09:48:43.772Z,4.70
2023-01-15T09:51:35.088Z,4.80
2023-01-15T09:54:20.212Z,4.80
2023-01-15T09:56:47.912Z,4.80
2023-01-15T09:59:35.873Z,4.80
2023-01-15T10:02:17.068Z,4.80
2023-01-15T10:04:48.792Z,4.80
2023-01-15T10:07:21.404Z,4.90
2023-01-15T10:09:57.445Z,4.90
2023-01-15T10:12:44.409Z,4.90
2023-01-15T10:15:15.503Z,4.90
2023-01-15T10:17:49.059Z,5.00
2023-01-15T10:20:42.937Z,5.00
2023-01-15T10:23:35.771Z,5.00
2023-01-15T10:26:24.064Z,5.10
2023-01-15T10:29:21.651Z,5.10
2023-01-15T10:32:07.607Z,5.10
2023-01-15T10:34:57.696Z,5.10
2023-01-15T10:37:33.217Z,5.20
2023-01-15T10:40:33.827Z,5.20
2023-01-15T10:43:03.588Z,5.30
2023-01-15T10:45:57.222Z,5.30
2023-01-15T10:48:37.577Z,5.30
2023-01-15T10:51:15.765Z,5.40
2023-01-15T10:53:44.874Z,5.30
2023-01-15T10:56:21.281Z,5.40
2023-01-15T10:59:22.161Z,5.40
2023-01-15T11:01:53.828Z,5.30
2023-01-15T11:04:21.059Z,5.40
2023-01-15T11:06:47.936Z,5.30
2023-01-15T11:09:23.458Z,5.30
2023-01-15T11:11:59.497Z,5.30
2023-01-15T11:14:59.367Z,5.30
2023-01-15T11:17:55.887Z,5.40
2023-01-15T11:20:35.124Z,5.40
2023-01-15T11:23:11.319Z,5.30
2023-01-15T11:25:44.363Z,5.20
2023-01-15T11:28:15.261Z,5.20
2023-01-15T11:30:44.812Z,5.20
2023-01-15T11:33:27.910Z,5.30
2023-01-15T11:35:58.510Z,5.60
2023-01-15T11:38:31.277Z,5.60
2023-01-15T11:40:59.800Z,5.60
2023-01-15T11:43:47.819Z,5.70
2023-01-15T11:46:45.732Z,5.70
2023-01-15T11:49:40.232Z,5.70
2023-01-15T11:52:10.458Z,5.80
2023-01-15T11:54:51.027Z,6.00
2023-01-15T11:57:30.373Z,5.90
2023-01-15T11:59:58.239Z,5.80
2023-01-15T12:02:38.175Z,5.70
2023-01-15T12:05:06.407Z,5.70
2023-01-15T12:07:38.038Z,5.70
2023-01-15T12:10:41.371Z,5.70
2023-01-15T12:13:41.412Z,5.80
2023-01-15T12:16:14.069Z,5.90
2023-01-15T12:18:43.769Z,5.90
2023-01-15T12:21:20.941Z,5.80
2023-01-15T12:24:13.603Z,5.80
2023-01-15T12:26:58.209Z,5.70
2023-01-15T12:29:31.625Z,5.70
2023-01-15T12:32:04.192Z,5.70
2023-01-15T12:34:42.415Z,5.80
2023-01-15T12:37:36.252Z,5.80
2023-01-15T12:40:08.776Z,5.80
2023-01-15T12:42:55.503Z,5.70
2023-01-15T12:45:31.216Z,5.70
2023-01-15T12:48:02.412Z,5.80
2023-01-15T12:50:35.811Z,5.70
2023-01-15T12:53:21.088Z,5.80
2023-01-15T12:56:01.893Z,5.80
2023-01-15T12:58:33.968Z,5.90
2023-01-15T13:01:18.631Z,6.00
2023-01-15T13:03:49.065Z,5.90
2023-01-15T13:06:17.731Z,5.90
2023-01-15T13:08:56.146Z,5.80
2023-01-15T13:11:23.028Z,5.80
2023-01-15T13:13:58.518Z,5.80
2023-01-15T13:17:03.995Z,5.80
2023-01-15T13:19:50.360Z,5.80
2023-01-15T13:22:30.365Z,5.90
2023-01-15T13:25:23.392Z,6.00
2023-01-15T13:28:15.473Z,6.00
2023-01-15T13:30:49.403Z,6.00
2023-01-15T13:33:41.297Z,6.00
2023-01-15T13:36:18.632Z,6.00
2023-01-15T13:38:50.324Z,6.10
2023-01-15T13:41:41.635Z,6.00
2023-01-15T13:44:22.933Z,6.10
2023-01-15T13:47:05.477Z,6.10
2023-01-15T13:49:35.965Z,6.00
2023-01-15T13:52:06.413Z,5.90
2023-01-15T13:54:36.446Z,5.90
2023-01-15T13:57:25.640Z,5.90
2023-01-15T13:59:52.340Z,5.80
2023-01-15T14:02:31.633Z,5.90
2023-01-15T14:04:59.133Z,5.90
2023-01-15T14:07:35.139Z,5.90
2023-01-15T14:10:30.729Z,5.90
2023-01-15T14:13:09.372Z,5.80
2023-01-15T14:15:57.842Z,5.80
2023-01-15T14:18:39.786Z,5.90
2023-01-15T14:21:19.072Z,5.90
2023-01-15T14:24:06.495Z,5.90
2023-01-15T14:26:47.475Z,6.00
2023-01-15T14:29:34.688Z,6.00
2023-01-15T14:32:29.132Z,5.90
2023-01-15T14:34:58.781Z,5.90
2023-01-15T14:37:33.930Z,5.80
2023-01-15T14:40:03.728Z,5.80
2023-01-15T14:42:53.951Z,5.80
2023-01-15T14:45:42.454Z,5.80
2023-01-15T14:48:17.695Z,5.90
2023-01-15T14:50:45.287Z,5.80
2023-01-15T14:53:11.941Z,5.80
2023-01-15T14:55:53.524Z,5.80
2023-01-15T14:58:48.142Z,5.90
2023-01-15T15:01:20.888Z,5.80
2023-01-15T15:03:57.839Z,5.80
2023-01-15T15:06:27.191Z,5.80
2023-01-15T15:09:00.366Z,5.80
2023-01-15T15:11:59.552Z,5.80
2023-01-15T15:14:27.620Z,5.70
2023-01-15T15:17:00.609Z,5.70
2023-01-15T15:19:33.705Z,5.70
2023-01-15T15:22:04.597Z,5.80
2023-01-15T15:24:36.565Z,5.80
2023-01-15T15:27:19.308Z,5.70
2023-01-15T15:29:46.616Z,5.80
2023-01-15T15:32:20.648Z,5.80
2023-01-15T15:34:51.128Z,5.80
2023-01-15T15:37:22.035Z,5.80
2023-01-15T15:40:06.515Z,5.70
2023-01-15T15:43:04.418Z,5.70
2023-01-15T15:45:50.237Z,5.70
2023-01-15T15:48:52.828Z,5.70
2023-01-15T15:51:36.496Z,5.70
2023-01-15T15:54:04.074Z,5.70
2023-01-15T15:56:33.399Z,5.70
2023-01-15T15:59:00.327Z,5.70
2023-01-15T16:01:27.288Z,5.70
2023-01-15T16:03:54.985Z,5.60
2023-01-15T16:06:25.638Z,5.70
2023-01-15T16:09:01.434Z,5.60
2023-01-15T16:11:28.367Z,5.60
2023-01-15T16:13:57.587Z,5.60
2023-01-15T16:16:27.380Z,5.60
2023-01-15T16:18:56.595Z,5.60
2023-01-15T16:21:34.846Z,5.60
2023-01-15T16:24:04.420Z,5.60
2023-01-15T16:26:37.241Z,5.50
2023-01-15T16:29:26.916Z,5.50
2023-01-15T16:31:56.841Z,5.50
2023-01-15T16:34:28.313Z,5.50
2023-01-15T16:36:55.164Z,5.50
2023-01-15T16:39:30.452Z,5.50
2023-01-15T16:41:58.189Z,5.50
2023-01-15T16:44:47.775Z,5.50
2023-01-15T16:47:25.859Z,5.50
2023-01-15T16:49:53.364Z,5.50
2023-01-15T16:52:50.574Z,5.60
2023-01-15T16:55:46.654Z,5.50
2023-01-15T16:58:13.728Z,5.50
2023-01-15T17:00:51.254Z,5.50
2023-01-15T17:03:24.154Z,5.50
2023-01-15T17:06:13.287Z,5.60
2023-01-15T17:08:46.609Z,5.60
2023-01-15T17:11:24.002Z,5.60
2023-01-15T17:13:50.830Z,5.60
2023-01-15T17:16:20.764Z,5.60
2023-01-15T17:18:49.259Z,5.60
2023-01-15T17:21:23.355Z,5.50
2023-01-15T17:23:50.487Z,5.50
2023-01-15T17:26:23.227Z,5.50
2023-01-15T17:28:50.142Z,5.40
2023-01-15T17:31:32.737Z,5.40
2023-01-15T17:34:01.798Z,5.30
2023-01-15T17:36:29.982Z,5.30
2023-01-15T17:38:56.971Z,5.20
2023-01-15T17:41:24.362Z,5.20
2023-01-15T17:43:51.233Z,5.20
2023-01-15T17:46:18.344Z,5.30
2023-01-15T17:48:45.094Z,5.30
2023-01-15T17:51:14.343Z,5.30
2023-01-15T17:53:41.331Z,5.30
2023-01-15T17:56:27.169Z,5.30
2023-01-15T17:59:12.666Z,5.40
2023-01-15T18:02:02.457Z,5.30
2023-01-15T18:04:54.548Z,5.30
2023-01-15T18:07:25.279Z,5.30
2023-01-15T18:09:56.183Z,5.20
2023-01-15T18:12:23.144Z,5.20
2023-01-15T18:14:50.281Z,5.20
2023-01-15T18:17:17.173Z,5.20
2023-01-15T18:19:44.315Z,5.20
2023-01-15T18:22:12.603Z,5.20
2023-01-15T18:24:39.923Z,5.20
2023-01-15T18:27:06.888Z,5.10
2023-01-15T18:29:38.713Z,5.10
2023-01-15T18:32:06.087Z,5.00
2023-01-15T18:34:32.749Z,5.10
2023-01-15T18:36:59.682Z,5.10
2023-01-15T18:39:26.932Z,5.10
2023-01-15T18:41:54.061Z,5.00
2023-01-15T18:44:43.222Z,5.00
2023-01-15T18:47:15.589Z,5.00
2023-01-15T18:49:44.398Z,5.00
2023-01-15T18:52:32.372Z,5.00
2023-01-15T18:54:59.103Z,5.00
2023-01-15T18:57:25.733Z,5.00
2023-01-15T18:59:52.662Z,4.90
2023-01-15T19:02:21.303Z,5.00
2023-01-15T19:04:48.479Z,5.00
2023-01-15T19:07:15.503Z,5.10
2023-01-15T19:09:42.212Z,5.10
2023-01-15T19:12:09.229Z,5.10
2023-01-15T19:14:54.299Z,5.10
2023-01-15T19:17:43.758Z,5.10
2023-01-15T19:20:13.027Z,5.10
2023-01-15T19:22:58.230Z,5.10
2023-01-15T19:25:26.132Z,5.10
2023-01-15T19:27:53.245Z,5.10
2023-01-15T19:30:19.958Z,5.10
2023-01-15T19:32:46.641Z,5.10
2023-01-15T19:35:13.585Z,5.10
2023-01-15T19:37:40.338Z,5.10
2023-01-15T19:40:12.160Z,5.10
2023-01-15T19:42:57.338Z,5.10
2023-01-15T19:45:42.749Z,5.10
2023-01-15T19:48:31.702Z,5.10
2023-01-15T19:50:58.385Z,5.00
2023-01-15T19:53:25.066Z,4.90
2023-01-15T19:55:51.803Z,4.90
2023-01-15T19:58:19.018Z,4.90
2023-01-15T20:00:48.628Z,4.80
2023-01-15T20:03:16.236Z,4.80
2023-01-15T20:05:44.119Z,4.70
2023-01-15T20:08:14.048Z,4.80
2023-01-15T20:10:42.582Z,4.70
2023-01-15T20:13:41.700Z,4.70
2023-01-15T20:16:13.868Z,4.70
2023-01-15T20:18:41.036Z,4.70
2023-01-15T20:21:08.583Z,4.70
2023-01-15T20:23:36.635Z,4.70
2023-01-15T20:26:10.297Z,4.70
2023-01-15T20:28:38.444Z,4.80
2023-01-15T20:31:05.677Z,4.70
2023-01-15T20:33:32.503Z,4.80
2023-01-15T20:36:04.059Z,4.70
2023-01-15T20:38:31.287Z,4.70
2023-01-15T20:41:20.628Z,4.60
2023-01-15T20:44:05.997Z,4.60
2023-01-15T20:46:32.606Z,4.60
2023-01-15T20:49:17.649Z,4.70
2023-01-15T20:51:45.652Z,4.70
2023-01-15T20:54:12.452Z,4.70
2023-01-15T20:56:39.055Z,4.80
2023-01-15T20:59:05.718Z,4.80
2023-01-15T21:01:32.341Z,4.80
2023-01-15T21:03:59.062Z,4.80
2023-01-15T21:06:25.804Z,4.70
2023-01-15T21:08:54.076Z,4.70
2023-01-15T21:11:20.785Z,4.70
2023-01-15T21:13:47.418Z,4.70
2023-01-15T21:16:15.208Z,4.70
2023-01-15T21:18:44.882Z,4.70
2023-01-15T21:21:17.310Z,4.60
2023-01-15T21:23:45.588Z,4.60
2023-01-15T21:26:13.820Z,4.60
2023-01-15T21:28:40.532Z,4.60
2023-01-15T21:31:09.036Z,4.50
2023-01-15T21:33:36.476Z,4.50
2023-01-15T21:36:08.030Z,4.50
2023-01-15T21:38:34.806Z,4.50
2023-01-15T21:41:13.416Z,4.50
2023-01-15T21:43:58.612Z,4.40
2023-01-15T21:46:28.206Z,4.40
2023-01-15T21:48:57.484Z,4.40
2023-01-15T21:51:24.936Z,4.40
2023-01-15T21:53:51.578Z,4.50
2023-01-15T21:56:18.150Z,4.40
2023-01-15T21:58:44.764Z,4.40
2023-01-15T22:01:14.276Z,4.40
2023-01-15T22:03:41.032Z,4.40
2023-01-15T22:06:09.626Z,4.40
2023-01-15T22:08:36.483Z,4.40
2023-01-15T22:11:08.050Z,4.40
2023-01-15T22:13:36.232Z,4.40
2023-01-15T22:16:04.468Z,4.30
2023-01-15T22:18:32.533Z,4.30
2023-01-15T22:21:03.399Z,4.20
2023-01-15T22:23:30.364Z,4.20
2023-01-15T22:25:57.304Z,4.20
2023-01-15T22:28:23.934Z,4.10
2023-01-15T22:30:50.595Z,4.10
2023-01-15T22:33:17.375Z,4.10
2023-01-15T22:35:44.254Z,4.00
2023-01-15T22:38:10.963Z,4.00
2023-01-15T22:40:37.673Z,4.00
2023-01-15T22:43:04.371Z,4.00
2023-01-15T22:45:30.978Z,4.10
2023-01-15T22:47:57.620Z,4.10
2023-01-15T22:50:24.222Z,4.10
2023-01-15T22:52:50.854Z,4.10
2023-01-15T22:55:17.548Z,4.10
2023-01-15T22:57:44.167Z,4.10
2023-01-15T23:00:11.320Z,4.10
2023-01-15T23:02:57.548Z,4.10
2023-01-15T23:05:24.588Z,4.10
2023-01-15T23:07:51.409Z,4.10
2023-01-15T23:10:18.124Z,4.10
2023-01-15T23:12:44.889Z,4.20
2023-01-15T23:15:13.361Z,4.20
2023-01-15T23:17:40.215Z,4.20
2023-01-15T23:20:08.187Z,4.20
2023-01-15T23:22:34.934Z,4.20
2023-01-15T23:25:01.603Z,4.20
2023-01-15T23:27:28.277Z,4.10
2023-01-15T23:29:54.858Z,4.10
2023-01-15T23:32:21.501Z,4.10
2023-01-15T23:34:48.164Z,4.10
2023-01-15T23:37:14.807Z,4.00
2023-01-15T23:39:41.415Z,3.90
2023-01-15T23:42:28.744Z,3.90
2023-01-15T23:45:14.200Z,3.90
2023-01-15T23:47:40.796Z,3.90
2023-01-15T23:50:07.902Z,3.90
2023-01-15T23:52:34.533Z,3.90
2023-01-15T23:55:01.137Z,3.90
2023-01-15T23:57:27.727Z,3.90
2023-01-15T23:59:54.339Z,3.80
